sensor_id;sensor_type;location;lat;lon;timestamp;P1;durP1;ratioP1;P2;durP2;ratioP2
28613;SDS011;15806;53.548;9.964;2023-04-25T00:00:27;4.57;;;2.57;;
28613;SDS011;15806;53.548;9.964;2023-04-25T00:02:07;5.43;;;2.30;;
28613;SDS011;15806;53.548;9.964;2023-04-25T00:03:48;8.17;;;2.87;;
28613;SDS011;15806;53.548;9.964;2023-04-25T00:05:28;6.70;;;2.10;;
28613;SDS011;15806;53.548;9.964;2023-04-25T00:07:09;14.30;;;3.20;;
28613;SDS011;15806;53.548;9.964;2023-04-25T00:08:49;4.97;;;2.00;;
28613;SDS011;15806;53.548;9.964;2023-04-25T00:10:30;6.13;;;2.00;;
28613;SDS011;15806;53.548;9.964;2023-04-25T00:12:11;5.43;;;2.10;;
28613;SDS011;15806;53.548;9.964;2023-04-25T00:13:51;10.63;;;2.07;;
28613;SDS011;15806;53.548;9.964;2023-04-25T00:15:32;12.40;;;2.43;;
28613;SDS011;15806;53.548;9.964;2023-04-25T00:17:12;11.20;;;2.20;;
28613;SDS011;15806;53.548;9.964;2023-04-25T00:18:53;16.57;;;2.27;;
28613;SDS011;15806;53.548;9.964;2023-04-25T00:20:33;8.57;;;2.33;;
28613;SDS011;15806;53.548;9.964;2023-04-25T00:22:15;24.52;;;3.03;;
28613;SDS011;15806;53.548;9.964;2023-04-25T00:23:56;15.55;;;2.67;;
28613;SDS011;15806;53.548;9.964;2023-04-25T00:25:36;12.07;;;2.17;;
28613;SDS011;15806;53.548;9.964;2023-04-25T00:27:17;10.57;;;2.90;;
28613;SDS011;15806;53.548;9.964;2023-04-25T00:28:57;17.80;;;2.17;;
28613;SDS011;15806;53.548;9.964;2023-04-25T00:30:39;9.97;;;1.83;;
28613;SDS011;15806;53.548;9.964;2023-04-25T00:34:00;20.60;;;2.45;;
28613;SDS011;15806;53.548;9.964;2023-04-25T00:35:41;14.33;;;1.90;;
28613;SDS011;15806;53.548;9.964;2023-04-25T00:37:22;11.45;;;2.28;;
28613;SDS011;15806;53.548;9.964;2023-04-25T00:39:02;14.80;;;2.60;;
28613;SDS011;15806;53.548;9.964;2023-04-25T00:40:43;11.03;;;1.80;;
28613;SDS011;15806;53.548;9.964;2023-04-25T00:42:24;18.93;;;2.20;;
28613;SDS011;15806;53.548;9.964;2023-04-25T00:44:05;19.90;;;2.08;;
28613;SDS011;15806;53.548;9.964;2023-04-25T00:45:47;15.10;;;1.83;;
28613;SDS011;15806;53.548;9.964;2023-04-25T00:47:28;7.23;;;1.97;;
28613;SDS011;15806;53.548;9.964;2023-04-25T00:49:09;17.48;;;3.08;;
28613;SDS011;15806;53.548;9.964;2023-04-25T00:50:51;18.63;;;2.07;;
28613;SDS011;15806;53.548;9.964;2023-04-25T00:52:33;14.82;;;2.17;;
28613;SDS011;15806;53.548;9.964;2023-04-25T00:54:14;14.60;;;1.90;;
28613;SDS011;15806;53.548;9.964;2023-04-25T00:55:55;22.83;;;2.35;;
28613;SDS011;15806;53.548;9.964;2023-04-25T00:57:36;19.10;;;2.10;;
28613;SDS011;15806;53.548;9.964;2023-04-25T00:59:17;9.82;;;1.73;;
28613;SDS011;15806;53.548;9.964;2023-04-25T01:00:59;24.38;;;3.22;;
28613;SDS011;15806;53.548;9.964;2023-04-25T01:02:40;20.52;;;2.30;;
28613;SDS011;15806;53.548;9.964;2023-04-25T01:04:21;12.93;;;1.67;;
28613;SDS011;15806;53.548;9.964;2023-04-25T01:06:01;11.07;;;2.07;;
28613;SDS011;15806;53.548;9.964;2023-04-25T01:07:42;12.67;;;2.17;;
28613;SDS011;15806;53.548;9.964;2023-04-25T01:09:26;9.20;;;2.20;;
28613;SDS011;15806;53.548;9.964;2023-04-25T01:11:07;14.52;;;2.67;;
28613;SDS011;15806;53.548;9.964;2023-04-25T01:12:48;16.47;;;1.83;;
28613;SDS011;15806;53.548;9.964;2023-04-25T01:14:28;8.47;;;1.83;;
28613;SDS011;15806;53.548;9.964;2023-04-25T01:16:09;15.33;;;2.03;;
28613;SDS011;15806;53.548;9.964;2023-04-25T01:17:49;14.20;;;2.40;;
28613;SDS011;15806;53.548;9.964;2023-04-25T01:19:30;12.43;;;2.17;;
28613;SDS011;15806;53.548;9.964;2023-04-25T01:21:11;16.03;;;3.30;;
28613;SDS011;15806;53.548;9.964;2023-04-25T01:22:53;18.85;;;2.83;;
28613;SDS011;15806;53.548;9.964;2023-04-25T01:24:34;13.63;;;1.88;;
28613;SDS011;15806;53.548;9.964;2023-04-25T01:26:15;17.90;;;2.58;;
28613;SDS011;15806;53.548;9.964;2023-04-25T01:27:56;15.00;;;1.97;;
28613;SDS011;15806;53.548;9.964;2023-04-25T01:29:37;11.25;;;1.90;;
28613;SDS011;15806;53.548;9.964;2023-04-25T01:31:18;23.67;;;3.05;;
28613;SDS011;15806;53.548;9.964;2023-04-25T01:32:59;11.77;;;1.63;;
28613;SDS011;15806;53.548;9.964;2023-04-25T01:34:41;14.90;;;2.75;;
28613;SDS011;15806;53.548;9.964;2023-04-25T01:36:21;16.10;;;2.33;;
28613;SDS011;15806;53.548;9.964;2023-04-25T01:38:02;19.33;;;2.50;;
28613;SDS011;15806;53.548;9.964;2023-04-25T01:39:42;15.20;;;2.40;;
28613;SDS011;15806;53.548;9.964;2023-04-25T01:41:23;25.10;;;3.73;;
28613;SDS011;15806;53.548;9.964;2023-04-25T01:43:03;21.70;;;2.90;;
28613;SDS011;15806;53.548;9.964;2023-04-25T01:44:44;26.87;;;2.40;;
28613;SDS011;15806;53.548;9.964;2023-04-25T01:46:24;16.30;;;2.07;;
28613;SDS011;15806;53.548;9.964;2023-04-25T01:48:05;19.03;;;2.80;;
28613;SDS011;15806;53.548;9.964;2023-04-25T01:49:46;16.27;;;2.00;;
28613;SDS011;15806;53.548;9.964;2023-04-25T01:51:26;19.10;;;2.40;;
28613;SDS011;15806;53.548;9.964;2023-04-25T01:53:07;23.10;;;3.40;;
28613;SDS011;15806;53.548;9.964;2023-04-25T01:54:49;14.05;;;2.53;;
28613;SDS011;15806;53.548;9.964;2023-04-25T01:56:32;15.27;;;1.92;;
28613;SDS011;15806;53.548;9.964;2023-04-25T01:58:16;17.40;;;2.20;;
28613;SDS011;15806;53.548;9.964;2023-04-25T02:00:00;18.00;;;2.57;;
28613;SDS011;15806;53.548;9.964;2023-04-25T02:01:42;9.48;;;2.03;;
28613;SDS011;15806;53.548;9.964;2023-04-25T02:03:23;13.77;;;1.97;;
28613;SDS011;15806;53.548;9.964;2023-04-25T02:05:04;14.70;;;2.73;;
28613;SDS011;15806;53.548;9.964;2023-04-25T02:06:44;18.83;;;2.78;;
28613;SDS011;15806;53.548;9.964;2023-04-25T02:08:25;12.70;;;2.43;;
28613;SDS011;15806;53.548;9.964;2023-04-25T02:10:06;15.93;;;2.13;;
28613;SDS011;15806;53.548;9.964;2023-04-25T02:11:46;19.75;;;3.05;;
28613;SDS011;15806;53.548;9.964;2023-04-25T02:13:27;22.57;;;2.20;;
28613;SDS011;15806;53.548;9.964;2023-04-25T02:15:08;20.40;;;1.63;;
28613;SDS011;15806;53.548;9.964;2023-04-25T02:16:49;13.48;;;1.92;;
28613;SDS011;15806;53.548;9.964;2023-04-25T02:18:29;17.30;;;3.57;;
28613;SDS011;15806;53.548;9.964;2023-04-25T02:20:10;11.63;;;2.17;;
28613;SDS011;15806;53.548;9.964;2023-04-25T02:21:51;18.05;;;2.67;;
28613;SDS011;15806;53.548;9.964;2023-04-25T02:23:31;13.37;;;2.20;;
28613;SDS011;15806;53.548;9.964;2023-04-25T02:25:12;17.30;;;2.83;;
28613;SDS011;15806;53.548;9.964;2023-04-25T02:26:53;19.43;;;2.73;;
28613;SDS011;15806;53.548;9.964;2023-04-25T02:28:33;9.80;;;1.63;;
28613;SDS011;15806;53.548;9.964;2023-04-25T02:30:14;21.50;;;2.57;;
28613;SDS011;15806;53.548;9.964;2023-04-25T02:31:55;17.13;;;2.20;;
28613;SDS011;15806;53.548;9.964;2023-04-25T02:33:35;18.27;;;2.43;;
28613;SDS011;15806;53.548;9.964;2023-04-25T02:35:16;13.80;;;1.63;;
28613;SDS011;15806;53.548;9.964;2023-04-25T02:36:56;15.93;;;2.10;;
28613;SDS011;15806;53.548;9.964;2023-04-25T02:38:37;16.63;;;2.97;;
28613;SDS011;15806;53.548;9.964;2023-04-25T02:40:18;14.00;;;2.10;;
28613;SDS011;15806;53.548;9.964;2023-04-25T02:41:58;14.47;;;1.97;;
28613;SDS011;15806;53.548;9.964;2023-04-25T02:43:39;16.93;;;2.13;;
28613;SDS011;15806;53.548;9.964;2023-04-25T02:45:19;14.53;;;2.03;;
28613;SDS011;15806;53.548;9.964;2023-04-25T02:47:00;16.07;;;2.00;;
28613;SDS011;15806;53.548;9.964;2023-04-25T02:48:40;19.43;;;2.97;;
28613;SDS011;15806;53.548;9.964;2023-04-25T02:50:21;12.43;;;2.30;;
28613;SDS011;15806;53.548;9.964;2023-04-25T02:52:01;7.83;;;1.53;;
28613;SDS011;15806;53.548;9.964;2023-04-25T02:53:42;21.37;;;2.20;;
28613;SDS011;15806;53.548;9.964;2023-04-25T02:55:22;17.17;;;2.67;;
28613;SDS011;15806;53.548;9.964;2023-04-25T02:57:03;16.97;;;3.93;;
28613;SDS011;15806;53.548;9.964;2023-04-25T02:58:43;18.97;;;2.13;;
28613;SDS011;15806;53.548;9.964;2023-04-25T03:00:24;19.27;;;1.70;;
28613;SDS011;15806;53.548;9.964;2023-04-25T03:02:04;12.67;;;2.00;;
28613;SDS011;15806;53.548;9.964;2023-04-25T03:03:45;10.73;;;2.20;;
28613;SDS011;15806;53.548;9.964;2023-04-25T03:05:25;9.43;;;1.70;;
28613;SDS011;15806;53.548;9.964;2023-04-25T03:07:06;9.60;;;1.50;;
28613;SDS011;15806;53.548;9.964;2023-04-25T03:08:47;9.97;;;1.70;;
28613;SDS011;15806;53.548;9.964;2023-04-25T03:10:27;14.47;;;2.77;;
28613;SDS011;15806;53.548;9.964;2023-04-25T03:12:08;15.93;;;2.60;;
28613;SDS011;15806;53.548;9.964;2023-04-25T03:13:48;14.70;;;2.00;;
28613;SDS011;15806;53.548;9.964;2023-04-25T03:15:29;12.77;;;2.23;;
28613;SDS011;15806;53.548;9.964;2023-04-25T03:17:09;22.37;;;2.70;;
28613;SDS011;15806;53.548;9.964;2023-04-25T03:18:50;15.73;;;2.07;;
28613;SDS011;15806;53.548;9.964;2023-04-25T03:20:30;12.90;;;1.47;;
28613;SDS011;15806;53.548;9.964;2023-04-25T03:22:11;8.10;;;1.70;;
28613;SDS011;15806;53.548;9.964;2023-04-25T03:23:51;16.43;;;2.20;;
28613;SDS011;15806;53.548;9.964;2023-04-25T03:25:32;16.37;;;2.23;;
28613;SDS011;15806;53.548;9.964;2023-04-25T03:27:13;9.97;;;2.93;;
28613;SDS011;15806;53.548;9.964;2023-04-25T03:28:53;14.47;;;2.43;;
28613;SDS011;15806;53.548;9.964;2023-04-25T03:30:34;15.60;;;1.63;;
28613;SDS011;15806;53.548;9.964;2023-04-25T03:32:14;10.73;;;1.57;;
28613;SDS011;15806;53.548;9.964;2023-04-25T03:33:55;13.20;;;2.47;;
28613;SDS011;15806;53.548;9.964;2023-04-25T03:35:35;13.50;;;1.80;;
28613;SDS011;15806;53.548;9.964;2023-04-25T03:37:16;15.53;;;2.07;;
28613;SDS011;15806;53.548;9.964;2023-04-25T03:38:56;9.03;;;2.20;;
28613;SDS011;15806;53.548;9.964;2023-04-25T03:40:37;12.30;;;1.53;;
28613;SDS011;15806;53.548;9.964;2023-04-25T03:42:17;10.03;;;1.60;;
28613;SDS011;15806;53.548;9.964;2023-04-25T03:43:58;13.40;;;1.60;;
28613;SDS011;15806;53.548;9.964;2023-04-25T03:45:38;13.33;;;1.90;;
28613;SDS011;15806;53.548;9.964;2023-04-25T03:47:19;10.63;;;1.60;;
28613;SDS011;15806;53.548;9.964;2023-04-25T03:48:59;18.00;;;1.87;;
28613;SDS011;15806;53.548;9.964;2023-04-25T03:50:40;17.30;;;2.77;;
28613;SDS011;15806;53.548;9.964;2023-04-25T03:52:20;21.30;;;3.03;;
28613;SDS011;15806;53.548;9.964;2023-04-25T03:54:01;19.60;;;3.17;;
28613;SDS011;15806;53.548;9.964;2023-04-25T03:55:42;13.50;;;1.83;;
28613;SDS011;15806;53.548;9.964;2023-04-25T03:57:22;11.67;;;1.63;;
28613;SDS011;15806;53.548;9.964;2023-04-25T03:59:03;16.27;;;2.93;;
28613;SDS011;15806;53.548;9.964;2023-04-25T04:00:43;13.80;;;1.50;;
28613;SDS011;15806;53.548;9.964;2023-04-25T04:02:24;20.33;;;2.03;;
28613;SDS011;15806;53.548;9.964;2023-04-25T04:04:04;9.97;;;1.93;;
28613;SDS011;15806;53.548;9.964;2023-04-25T04:05:45;10.00;;;1.87;;
28613;SDS011;15806;53.548;9.964;2023-04-25T04:07:25;9.07;;;1.40;;
28613;SDS011;15806;53.548;9.964;2023-04-25T04:09:06;14.67;;;1.30;;
28613;SDS011;15806;53.548;9.964;2023-04-25T04:10:46;16.33;;;2.80;;
28613;SDS011;15806;53.548;9.964;2023-04-25T04:12:27;21.10;;;3.03;;
28613;SDS011;15806;53.548;9.964;2023-04-25T04:14:07;11.53;;;1.60;;
28613;SDS011;15806;53.548;9.964;2023-04-25T04:15:48;7.77;;;1.80;;
28613;SDS011;15806;53.548;9.964;2023-04-25T04:17:29;9.80;;;1.40;;
28613;SDS011;15806;53.548;9.964;2023-04-25T04:19:09;16.25;;;1.60;;
28613;SDS011;15806;53.548;9.964;2023-04-25T04:20:50;9.73;;;1.53;;
28613;SDS011;15806;53.548;9.964;2023-04-25T04:22:31;5.43;;;1.30;;
28613;SDS011;15806;53.548;9.964;2023-04-25T04:24:11;10.30;;;1.65;;
28613;SDS011;15806;53.548;9.964;2023-04-25T04:25:52;10.20;;;1.50;;
28613;SDS011;15806;53.548;9.964;2023-04-25T04:27:33;21.58;;;1.90;;
28613;SDS011;15806;53.548;9.964;2023-04-25T04:29:13;18.93;;;1.67;;
28613;SDS011;15806;53.548;9.964;2023-04-25T04:30:54;22.90;;;2.07;;
28613;SDS011;15806;53.548;9.964;2023-04-25T04:32:34;7.90;;;1.60;;
28613;SDS011;15806;53.548;9.964;2023-04-25T04:34:15;16.63;;;1.77;;
28613;SDS011;15806;53.548;9.964;2023-04-25T04:35:56;12.13;;;1.80;;
28613;SDS011;15806;53.548;9.964;2023-04-25T04:37:36;6.63;;;1.27;;
28613;SDS011;15806;53.548;9.964;2023-04-25T04:39:18;12.10;;;1.55;;
28613;SDS011;15806;53.548;9.964;2023-04-25T04:40:59;15.10;;;2.17;;
28613;SDS011;15806;53.548;9.964;2023-04-25T04:42:39;6.10;;;1.77;;
28613;SDS011;15806;53.548;9.964;2023-04-25T04:44:20;15.70;;;1.50;;
28613;SDS011;15806;53.548;9.964;2023-04-25T04:46:00;11.50;;;1.83;;
28613;SDS011;15806;53.548;9.964;2023-04-25T04:47:41;11.73;;;1.60;;
28613;SDS011;15806;53.548;9.964;2023-04-25T04:49:21;9.60;;;2.33;;
28613;SDS011;15806;53.548;9.964;2023-04-25T04:51:02;7.17;;;1.20;;
28613;SDS011;15806;53.548;9.964;2023-04-25T04:52:42;16.27;;;1.67;;
28613;SDS011;15806;53.548;9.964;2023-04-25T04:54:23;7.57;;;1.23;;
28613;SDS011;15806;53.548;9.964;2023-04-25T04:56:04;16.00;;;1.80;;
28613;SDS011;15806;53.548;9.964;2023-04-25T04:57:44;7.55;;;1.67;;
28613;SDS011;15806;53.548;9.964;2023-04-25T04:59:25;12.70;;;2.00;;
28613;SDS011;15806;53.548;9.964;2023-04-25T05:01:05;10.07;;;2.57;;
28613;SDS011;15806;53.548;9.964;2023-04-25T05:02:46;13.13;;;2.17;;
28613;SDS011;15806;53.548;9.964;2023-04-25T05:04:26;7.50;;;2.10;;
28613;SDS011;15806;53.548;9.964;2023-04-25T05:06:07;11.23;;;3.53;;
28613;SDS011;15806;53.548;9.964;2023-04-25T05:07:47;19.07;;;2.97;;
28613;SDS011;15806;53.548;9.964;2023-04-25T05:09:28;16.03;;;3.40;;
28613;SDS011;15806;53.548;9.964;2023-04-25T05:11:08;14.60;;;1.97;;
28613;SDS011;15806;53.548;9.964;2023-04-25T05:12:49;14.30;;;1.33;;
28613;SDS011;15806;53.548;9.964;2023-04-25T05:14:29;8.03;;;1.33;;
28613;SDS011;15806;53.548;9.964;2023-04-25T05:16:10;13.07;;;1.90;;
28613;SDS011;15806;53.548;9.964;2023-04-25T05:17:51;14.43;;;1.73;;
28613;SDS011;15806;53.548;9.964;2023-04-25T05:19:32;13.53;;;1.70;;
28613;SDS011;15806;53.548;9.964;2023-04-25T05:21:12;12.40;;;1.53;;
28613;SDS011;15806;53.548;9.964;2023-04-25T05:22:53;8.17;;;1.13;;
28613;SDS011;15806;53.548;9.964;2023-04-25T05:24:33;17.27;;;1.67;;
28613;SDS011;15806;53.548;9.964;2023-04-25T05:26:14;11.17;;;2.20;;
28613;SDS011;15806;53.548;9.964;2023-04-25T05:27:54;12.77;;;1.70;;
28613;SDS011;15806;53.548;9.964;2023-04-25T05:29:35;7.47;;;1.50;;
28613;SDS011;15806;53.548;9.964;2023-04-25T05:31:15;9.93;;;1.87;;
28613;SDS011;15806;53.548;9.964;2023-04-25T05:32:56;10.10;;;1.97;;
28613;SDS011;15806;53.548;9.964;2023-04-25T05:34:36;11.97;;;1.37;;
28613;SDS011;15806;53.548;9.964;2023-04-25T05:36:20;5.83;;;1.27;;
28613;SDS011;15806;53.548;9.964;2023-04-25T05:38:00;6.93;;;1.58;;
28613;SDS011;15806;53.548;9.964;2023-04-25T05:39:41;10.20;;;2.93;;
28613;SDS011;15806;53.548;9.964;2023-04-25T05:41:21;12.77;;;2.30;;
28613;SDS011;15806;53.548;9.964;2023-04-25T05:43:02;8.07;;;2.07;;
28613;SDS011;15806;53.548;9.964;2023-04-25T05:44:42;13.73;;;1.53;;
28613;SDS011;15806;53.548;9.964;2023-04-25T05:46:23;8.30;;;1.77;;
28613;SDS011;15806;53.548;9.964;2023-04-25T05:48:03;23.33;;;2.13;;
28613;SDS011;15806;53.548;9.964;2023-04-25T05:49:44;14.50;;;1.87;;
28613;SDS011;15806;53.548;9.964;2023-04-25T05:51:24;11.93;;;2.07;;
28613;SDS011;15806;53.548;9.964;2023-04-25T05:53:05;10.10;;;1.80;;
28613;SDS011;15806;53.548;9.964;2023-04-25T05:54:45;16.93;;;2.00;;
28613;SDS011;15806;53.548;9.964;2023-04-25T05:56:26;7.43;;;1.47;;
28613;SDS011;15806;53.548;9.964;2023-04-25T05:58:06;11.57;;;1.63;;
28613;SDS011;15806;53.548;9.964;2023-04-25T05:59:47;8.60;;;1.60;;
28613;SDS011;15806;53.548;9.964;2023-04-25T06:01:27;9.60;;;1.50;;
28613;SDS011;15806;53.548;9.964;2023-04-25T06:03:08;13.33;;;1.67;;
28613;SDS011;15806;53.548;9.964;2023-04-25T06:04:49;8.00;;;1.40;;
28613;SDS011;15806;53.548;9.964;2023-04-25T06:06:30;11.00;;;1.20;;
28613;SDS011;15806;53.548;9.964;2023-04-25T06:08:10;9.80;;;1.70;;
28613;SDS011;15806;53.548;9.964;2023-04-25T06:09:51;11.40;;;2.23;;
28613;SDS011;15806;53.548;9.964;2023-04-25T06:11:31;7.33;;;0.90;;
28613;SDS011;15806;53.548;9.964;2023-04-25T06:13:12;13.00;;;1.80;;
28613;SDS011;15806;53.548;9.964;2023-04-25T06:14:52;3.87;;;1.50;;
28613;SDS011;15806;53.548;9.964;2023-04-25T06:16:33;8.20;;;1.60;;
28613;SDS011;15806;53.548;9.964;2023-04-25T06:18:13;15.83;;;2.07;;
28613;SDS011;15806;53.548;9.964;2023-04-25T06:19:54;8.37;;;1.33;;
28613;SDS011;15806;53.548;9.964;2023-04-25T06:21:34;8.40;;;1.77;;
28613;SDS011;15806;53.548;9.964;2023-04-25T06:23:15;10.93;;;3.30;;
28613;SDS011;15806;53.548;9.964;2023-04-25T06:24:55;9.30;;;2.63;;
28613;SDS011;15806;53.548;9.964;2023-04-25T06:26:36;11.37;;;1.30;;
28613;SDS011;15806;53.548;9.964;2023-04-25T06:28:16;8.83;;;1.30;;
28613;SDS011;15806;53.548;9.964;2023-04-25T06:29:57;12.23;;;1.53;;
28613;SDS011;15806;53.548;9.964;2023-04-25T06:31:37;10.43;;;1.60;;
28613;SDS011;15806;53.548;9.964;2023-04-25T06:33:19;11.20;;;2.50;;
28613;SDS011;15806;53.548;9.964;2023-04-25T06:35:00;10.35;;;1.77;;
28613;SDS011;15806;53.548;9.964;2023-04-25T06:36:41;10.20;;;1.13;;
28613;SDS011;15806;53.548;9.964;2023-04-25T06:38:21;10.07;;;1.20;;
28613;SDS011;15806;53.548;9.964;2023-04-25T06:40:02;12.27;;;1.70;;
28613;SDS011;15806;53.548;9.964;2023-04-25T06:41:43;10.48;;;1.38;;
28613;SDS011;15806;53.548;9.964;2023-04-25T06:43:24;8.23;;;1.10;;
28613;SDS011;15806;53.548;9.964;2023-04-25T06:45:07;7.93;;;1.33;;
28613;SDS011;15806;53.548;9.964;2023-04-25T06:46:48;13.88;;;1.83;;
28613;SDS011;15806;53.548;9.964;2023-04-25T06:48:28;10.03;;;1.30;;
28613;SDS011;15806;53.548;9.964;2023-04-25T06:50:09;9.40;;;1.30;;
28613;SDS011;15806;53.548;9.964;2023-04-25T06:51:50;17.63;;;1.57;;
28613;SDS011;15806;53.548;9.964;2023-04-25T06:53:30;11.50;;;1.93;;
28613;SDS011;15806;53.548;9.964;2023-04-25T06:55:11;4.33;;;1.23;;
28613;SDS011;15806;53.548;9.964;2023-04-25T06:56:51;14.33;;;1.47;;
28613;SDS011;15806;53.548;9.964;2023-04-25T06:58:33;8.85;;;1.27;;
28613;SDS011;15806;53.548;9.964;2023-04-25T07:00:13;14.00;;;1.57;;
28613;SDS011;15806;53.548;9.964;2023-04-25T07:01:54;9.05;;;1.17;;
28613;SDS011;15806;53.548;9.964;2023-04-25T07:03:35;13.65;;;1.65;;
28613;SDS011;15806;53.548;9.964;2023-04-25T07:05:16;13.63;;;1.60;;
28613;SDS011;15806;53.548;9.964;2023-04-25T07:06:57;14.80;;;1.42;;
28613;SDS011;15806;53.548;9.964;2023-04-25T07:08:37;11.70;;;1.73;;
28613;SDS011;15806;53.548;9.964;2023-04-25T07:10:18;9.57;;;1.37;;
28613;SDS011;15806;53.548;9.964;2023-04-25T07:11:59;10.20;;;1.03;;
28613;SDS011;15806;53.548;9.964;2023-04-25T07:13:40;5.70;;;0.98;;
28613;SDS011;15806;53.548;9.964;2023-04-25T07:15:20;7.63;;;1.10;;
28613;SDS011;15806;53.548;9.964;2023-04-25T07:17:01;11.40;;;1.30;;
28613;SDS011;15806;53.548;9.964;2023-04-25T07:18:42;8.53;;;1.43;;
28613;SDS011;15806;53.548;9.964;2023-04-25T07:20:22;11.23;;;1.13;;
28613;SDS011;15806;53.548;9.964;2023-04-25T07:22:03;6.23;;;1.37;;
28613;SDS011;15806;53.548;9.964;2023-04-25T07:23:44;9.67;;;1.23;;
28613;SDS011;15806;53.548;9.964;2023-04-25T07:25:25;15.50;;;1.30;;
28613;SDS011;15806;53.548;9.964;2023-04-25T07:27:05;4.90;;;0.97;;
28613;SDS011;15806;53.548;9.964;2023-04-25T07:28:46;15.67;;;1.60;;
28613;SDS011;15806;53.548;9.964;2023-04-25T07:30:30;11.90;;;1.60;;
28613;SDS011;15806;53.548;9.964;2023-04-25T07:32:14;14.73;;;1.27;;
28613;SDS011;15806;53.548;9.964;2023-04-25T07:33:57;14.10;;;1.55;;
28613;SDS011;15806;53.548;9.964;2023-04-25T07:35:38;7.40;;;0.70;;
28613;SDS011;15806;53.548;9.964;2023-04-25T07:37:19;3.43;;;1.00;;
28613;SDS011;15806;53.548;9.964;2023-04-25T07:38:59;7.67;;;0.90;;
28613;SDS011;15806;53.548;9.964;2023-04-25T07:40:40;9.23;;;1.10;;
28613;SDS011;15806;53.548;9.964;2023-04-25T07:42:21;10.33;;;1.50;;
28613;SDS011;15806;53.548;9.964;2023-04-25T07:44:02;10.67;;;1.23;;
28613;SDS011;15806;53.548;9.964;2023-04-25T07:45:48;8.70;;;0.97;;
28613;SDS011;15806;53.548;9.964;2023-04-25T07:47:32;9.27;;;1.23;;
28613;SDS011;15806;53.548;9.964;2023-04-25T07:49:16;5.93;;;1.17;;
28613;SDS011;15806;53.548;9.964;2023-04-25T07:51:17;3.05;;;0.77;;
28613;SDS011;15806;53.548;9.964;2023-04-25T07:53:18;5.55;;;1.48;;
28613;SDS011;15806;53.548;9.964;2023-04-25T07:55:35;6.50;;;0.85;;
28613;SDS011;15806;53.548;9.964;2023-04-25T07:57:33;7.15;;;1.00;;
28613;SDS011;15806;53.548;9.964;2023-04-25T07:59:14;5.32;;;1.27;;
28613;SDS011;15806;53.548;9.964;2023-04-25T08:01:07;7.60;;;1.40;;
28613;SDS011;15806;53.548;9.964;2023-04-25T08:07:32;10.02;;;2.17;;
28613;SDS011;15806;53.548;9.964;2023-04-25T08:09:22;4.75;;;1.05;;
28613;SDS011;15806;53.548;9.964;2023-04-25T08:11:12;10.73;;;1.30;;
28613;SDS011;15806;53.548;9.964;2023-04-25T08:12:52;10.13;;;1.23;;
28613;SDS011;15806;53.548;9.964;2023-04-25T08:15:12;5.90;;;0.75;;
28613;SDS011;15806;53.548;9.964;2023-04-25T08:16:59;9.82;;;0.93;;
28613;SDS011;15806;53.548;9.964;2023-04-25T08:18:42;7.82;;;0.80;;
28613;SDS011;15806;53.548;9.964;2023-04-25T08:20:22;6.20;;;1.10;;
28613;SDS011;15806;53.548;9.964;2023-04-25T08:22:06;9.77;;;1.80;;
28613;SDS011;15806;53.548;9.964;2023-04-25T08:23:47;5.57;;;0.73;;
28613;SDS011;15806;53.548;9.964;2023-04-25T08:25:28;6.30;;;1.27;;
28613;SDS011;15806;53.548;9.964;2023-04-25T08:27:29;6.55;;;0.90;;
28613;SDS011;15806;53.548;9.964;2023-04-25T08:29:10;9.80;;;1.42;;
28613;SDS011;15806;53.548;9.964;2023-04-25T08:31:01;3.03;;;0.73;;
28613;SDS011;15806;53.548;9.964;2023-04-25T08:32:44;7.18;;;0.98;;
28613;SDS011;15806;53.548;9.964;2023-04-25T08:34:24;8.73;;;0.80;;
28613;SDS011;15806;53.548;9.964;2023-04-25T08:36:05;5.67;;;0.90;;
28613;SDS011;15806;53.548;9.964;2023-04-25T08:37:46;6.53;;;0.80;;
28613;SDS011;15806;53.548;9.964;2023-04-25T08:39:26;5.60;;;0.80;;
28613;SDS011;15806;53.548;9.964;2023-04-25T08:41:07;5.83;;;0.90;;
28613;SDS011;15806;53.548;9.964;2023-04-25T08:42:47;3.23;;;0.50;;
28613;SDS011;15806;53.548;9.964;2023-04-25T08:44:30;6.65;;;1.02;;
28613;SDS011;15806;53.548;9.964;2023-04-25T08:47:53;8.07;;;1.08;;
28613;SDS011;15806;53.548;9.964;2023-04-25T08:49:35;4.93;;;0.60;;
28613;SDS011;15806;53.548;9.964;2023-04-25T08:51:20;4.82;;;0.70;;
28613;SDS011;15806;53.548;9.964;2023-04-25T08:53:03;4.30;;;0.63;;
28613;SDS011;15806;53.548;9.964;2023-04-25T08:54:45;4.95;;;0.70;;
28613;SDS011;15806;53.548;9.964;2023-04-25T08:56:28;5.03;;;0.73;;
28613;SDS011;15806;53.548;9.964;2023-04-25T08:58:09;13.53;;;1.33;;
28613;SDS011;15806;53.548;9.964;2023-04-25T08:59:51;2.00;;;0.55;;
28613;SDS011;15806;53.548;9.964;2023-04-25T09:01:32;7.57;;;0.90;;
28613;SDS011;15806;53.548;9.964;2023-04-25T09:03:14;10.68;;;1.05;;
28613;SDS011;15806;53.548;9.964;2023-04-25T09:04:54;6.73;;;0.70;;
28613;SDS011;15806;53.548;9.964;2023-04-25T09:06:35;6.53;;;0.73;;
28613;SDS011;15806;53.548;9.964;2023-04-25T09:08:16;5.87;;;0.80;;
28613;SDS011;15806;53.548;9.964;2023-04-25T09:09:56;2.70;;;0.97;;
28613;SDS011;15806;53.548;9.964;2023-04-25T09:11:37;4.87;;;1.30;;
28613;SDS011;15806;53.548;9.964;2023-04-25T09:13:24;5.03;;;0.60;;
28613;SDS011;15806;53.548;9.964;2023-04-25T09:15:09;2.83;;;0.40;;
28613;SDS011;15806;53.548;9.964;2023-04-25T09:18:43;5.50;;;0.82;;
28613;SDS011;15806;53.548;9.964;2023-04-25T09:20:24;5.63;;;0.50;;
28613;SDS011;15806;53.548;9.964;2023-04-25T09:22:05;10.27;;;0.60;;
28613;SDS011;15806;53.548;9.964;2023-04-25T09:23:47;3.60;;;0.73;;
28613;SDS011;15806;53.548;9.964;2023-04-25T09:25:28;3.97;;;0.93;;
28613;SDS011;15806;53.548;9.964;2023-04-25T09:27:18;7.45;;;0.80;;
28613;SDS011;15806;53.548;9.964;2023-04-25T09:29:06;8.55;;;0.85;;
28613;SDS011;15806;53.548;9.964;2023-04-25T09:30:47;2.90;;;0.73;;
28613;SDS011;15806;53.548;9.964;2023-04-25T09:32:28;3.70;;;0.73;;
28613;SDS011;15806;53.548;9.964;2023-04-25T09:34:08;5.20;;;0.57;;
28613;SDS011;15806;53.548;9.964;2023-04-25T09:35:49;8.27;;;2.03;;
28613;SDS011;15806;53.548;9.964;2023-04-25T09:37:29;12.83;;;0.97;;
28613;SDS011;15806;53.548;9.964;2023-04-25T09:39:12;7.38;;;0.68;;
28613;SDS011;15806;53.548;9.964;2023-04-25T09:40:52;16.55;;;1.45;;
28613;SDS011;15806;53.548;9.964;2023-04-25T09:42:33;8.43;;;0.90;;
28613;SDS011;15806;53.548;9.964;2023-04-25T09:44:13;11.70;;;1.13;;
28613;SDS011;15806;53.548;9.964;2023-04-25T09:45:54;4.60;;;0.90;;
28613;SDS011;15806;53.548;9.964;2023-04-25T09:47:36;11.10;;;1.25;;
28613;SDS011;15806;53.548;9.964;2023-04-25T09:51:59;6.25;;;0.77;;
28613;SDS011;15806;53.548;9.964;2023-04-25T09:55:52;5.60;;;0.82;;
28613;SDS011;15806;53.548;9.964;2023-04-25T09:59:53;5.50;;;0.90;;
28613;SDS011;15806;53.548;9.964;2023-04-25T10:02:06;6.43;;;1.52;;
28613;SDS011;15806;53.548;9.964;2023-04-25T10:04:06;5.60;;;1.02;;
28613;SDS011;15806;53.548;9.964;2023-04-25T10:10:03;3.10;;;0.50;;
28613;SDS011;15806;53.548;9.964;2023-04-25T10:11:59;5.53;;;0.70;;
28613;SDS011;15806;53.548;9.964;2023-04-25T10:13:43;6.87;;;0.67;;
28613;SDS011;15806;53.548;9.964;2023-04-25T10:15:33;3.53;;;0.70;;
28613;SDS011;15806;53.548;9.964;2023-04-25T10:19:53;5.50;;;0.52;;
28613;SDS011;15806;53.548;9.964;2023-04-25T10:24:17;5.60;;;0.77;;
28613;SDS011;15806;53.548;9.964;2023-04-25T10:27:44;7.50;;;0.80;;
28613;SDS011;15806;53.548;9.964;2023-04-25T10:30:31;2.83;;;0.88;;
28613;SDS011;15806;53.548;9.964;2023-04-25T10:31:58;2.90;;;0.65;;
28613;SDS011;15806;53.548;9.964;2023-04-25T10:33:59;5.75;;;0.70;;
28613;SDS011;15806;53.548;9.964;2023-04-25T10:35:40;8.13;;;0.70;;
28613;SDS011;15806;53.548;9.964;2023-04-25T10:37:23;8.03;;;1.30;;